createdAt,value
2022-10-01T00:01:05.178Z,92.26
2022-10-01T00:03:31.923Z,92.32
2022-10-01T00:06:03.907Z,92.58
2022-10-01T00:08:31.466Z,93.13
2022-10-01T00:11:00.953Z,92.55
2022-10-01T00:13:30.350Z,93.03
2022-10-01T00:15:57.046Z,92.90
2022-10-01T00:18:23.591Z,92.93
2022-10-01T00:20:50.039Z,93.05
2022-10-01T00:23:16.628Z,93.33
2022-10-01T00:25:43.803Z,93.41
2022-10-01T00:28:11.964Z,93.74
2022-10-01T00:30:40.517Z,93.93
2022-10-01T00:33:07.092Z,93.92
2022-10-01T00:35:33.570Z,93.68
2022-10-01T00:38:00.070Z,94.28
2022-10-01T00:40:26.522Z,94.29
2022-10-01T00:42:53.097Z,94.14
2022-10-01T00:45:19.669Z,94.32
2022-10-01T00:47:54.403Z,94.63
2022-10-01T00:50:34.859Z,94.30
2022-10-01T00:53:05.008Z,94.62
2022-10-01T00:55:36.437Z,95.04
2022-10-01T00:58:05.019Z,94.69
2022-10-01T01:00:31.915Z,94.69
2022-10-01T01:02:58.425Z,94.51
2022-10-01T01:05:25.329Z,95.04
2022-10-01T01:07:53.688Z,94.98
2022-10-01T01:10:49.464Z,95.04
2022-10-01T01:13:32.026Z,94.75
2022-10-01T01:16:35.371Z,94.84
2022-10-01T01:19:04.770Z,95.16
2022-10-01T01:21:41.041Z,94.94
2022-10-01T01:24:36.936Z,95.15
2022-10-01T01:27:26.174Z,95.46
2022-10-01T01:30:01.257Z,94.94
2022-10-01T01:32:34.949Z,95.42
2022-10-01T01:35:05.952Z,95.38
2022-10-01T01:37:42.250Z,95.78
2022-10-01T01:40:11.919Z,95.35
2022-10-01T01:42:43.339Z,95.68
2022-10-01T01:45:15.804Z,95.35
2022-10-01T01:47:45.239Z,95.69
2022-10-01T01:50:14.272Z,95.67
2022-10-01T01:52:41.354Z,95.76
2022-10-01T01:55:11.069Z,95.90
2022-10-01T01:57:44.020Z,95.95
2022-10-01T02:00:12.632Z,96.20
2022-10-01T02:02:43.896Z,96.50
2022-10-01T02:05:15.998Z,96.06
2022-10-01T02:08:17.865Z,96.22
2022-10-01T02:11:09.301Z,95.84
2022-10-01T02:13:43.225Z,96.29
2022-10-01T02:16:09.748Z,96.04
2022-10-01T02:19:01.696Z,96.47
2022-10-01T02:21:31.639Z,96.47
2022-10-01T02:24:08.731Z,96.46
2022-10-01T02:26:37.453Z,96.22
2022-10-01T02:29:08.437Z,96.48
2022-10-01T02:31:35.998Z,96.68
2022-10-01T02:34:08.615Z,96.44
2022-10-01T02:36:42.295Z,96.53
2022-10-01T02:39:11.164Z,96.58
2022-10-01T02:41:37.611Z,96.91
2022-10-01T02:44:12.369Z,96.95
2022-10-01T02:47:00.256Z,96.74
2022-10-01T02:49:30.743Z,96.93
2022-10-01T02:52:31.337Z,96.73
2022-10-01T02:55:07.175Z,96.67
2022-10-01T02:57:33.857Z,97.17
2022-10-01T03:00:03.723Z,97.21
2022-10-01T03:02:31.667Z,97.21
2022-10-01T03:04:59.586Z,96.95
2022-10-01T03:07:27.735Z,96.93
2022-10-01T03:09:54.373Z,97.19
2022-10-01T03:12:22.478Z,97.15
2022-10-01T03:14:49.616Z,97.49
2022-10-01T03:17:17.066Z,97.40
2022-10-01T03:19:43.567Z,97.60
2022-10-01T03:22:13.351Z,97.25
2022-10-01T03:24:39.850Z,97.67
2022-10-01T03:27:06.794Z,97.59
2022-10-01T03:29:33.365Z,97.41
2022-10-01T03:31:59.896Z,97.79
2022-10-01T03:34:26.487Z,97.44
2022-10-01T03:36:53.035Z,97.50
2022-10-01T03:39:19.960Z,97.63
2022-10-01T03:41:46.407Z,97.59
2022-10-01T03:44:12.957Z,97.83
2022-10-01T03:46:39.593Z,97.66
2022-10-01T03:49:06.351Z,97.60
2022-10-01T03:51:33.635Z,97.87
2022-10-01T03:54:00.313Z,97.91
2022-10-01T03:56:26.842Z,97.64
2022-10-01T03:58:53.587Z,98.08
2022-10-01T04:01:20.174Z,97.83
2022-10-01T04:03:47.110Z,98.20
2022-10-01T04:06:13.626Z,97.86
2022-10-01T04:08:40.471Z,98.14
2022-10-01T04:11:07.790Z,97.98
2022-10-01T04:13:35.014Z,97.84
2022-10-01T04:16:03.059Z,98.08
2022-10-01T04:18:29.721Z,98.21
2022-10-01T04:20:56.246Z,97.91
2022-10-01T04:23:22.713Z,98.09
2022-10-01T04:25:49.391Z,98.18
2022-10-01T04:28:16.336Z,98.19
2022-10-01T04:30:44.958Z,98.12
2022-10-01T04:33:16.507Z,98.32
2022-10-01T04:35:43.612Z,98.19
2022-10-01T04:38:16.350Z,98.42
2022-10-01T04:40:43.088Z,98.26
2022-10-01T04:43:11.192Z,98.37
2022-10-01T04:45:38.185Z,98.17
2022-10-01T04:48:05.330Z,98.04
2022-10-01T04:50:32.336Z,98.19
2022-10-01T04:52:58.937Z,98.27
2022-10-01T04:55:25.440Z,98.25
2022-10-01T04:57:51.948Z,98.44
2022-10-01T05:00:21.671Z,98.24
2022-10-01T05:02:49.653Z,98.32
2022-10-01T05:05:17.989Z,98.46
2022-10-01T05:07:44.626Z,98.40
2022-10-01T05:10:19.832Z,98.52
2022-10-01T05:12:47.821Z,98.42
2022-10-01T05:15:15.783Z,98.49
2022-10-01T05:17:43.103Z,98.37
2022-10-01T05:20:16.801Z,98.70
2022-10-01T05:22:44.489Z,98.67
2022-10-01T05:25:10.894Z,98.91
2022-10-01T05:27:38.855Z,98.69
2022-10-01T05:30:06.274Z,98.47
2022-10-01T05:32:32.742Z,98.89
2022-10-01T05:34:59.183Z,98.73
2022-10-01T05:37:25.740Z,98.89
2022-10-01T05:39:52.170Z,98.87
2022-10-01T05:42:18.645Z,98.94
2022-10-01T05:44:49.991Z,98.93
2022-10-01T05:47:17.264Z,98.72
2022-10-01T05:49:44.438Z,98.94
2022-10-01T05:52:12.297Z,99.24
2022-10-01T05:54:38.999Z,98.87
2022-10-01T05:57:07.862Z,99.30
2022-10-01T05:59:35.070Z,99.19
2022-10-01T06:02:02.265Z,98.96
2022-10-01T06:04:28.797Z,99.63
2022-10-01T06:06:56.167Z,99.38
2022-10-01T06:09:22.741Z,99.51
2022-10-01T06:11:49.609Z,99.68
2022-10-01T06:14:16.811Z,99.63
2022-10-01T06:16:43.385Z,99.80
2022-10-01T06:19:10.205Z,99.85
2022-10-01T06:21:37.447Z,99.60
2022-10-01T06:24:04.293Z,99.33
2022-10-01T06:26:31.144Z,99.13
2022-10-01T06:28:57.788Z,99.01
2022-10-01T06:31:24.327Z,98.95
2022-10-01T06:33:50.878Z,98.82
2022-10-01T06:36:17.408Z,98.48
2022-10-01T06:38:43.989Z,98.32
2022-10-01T06:41:10.968Z,98.04
2022-10-01T06:43:37.565Z,98.22
2022-10-01T06:46:05.399Z,97.84
2022-10-01T06:48:35.483Z,97.48
2022-10-01T06:51:02.268Z,97.58
2022-10-01T06:53:29.129Z,97.11
2022-10-01T06:55:56.157Z,96.89
2022-10-01T06:58:26.295Z,97.09
2022-10-01T07:00:58.912Z,97.07
2022-10-01T07:03:25.812Z,96.78
2022-10-01T07:05:52.684Z,97.06
2022-10-01T07:08:19.189Z,96.95
2022-10-01T07:10:45.722Z,96.87
2022-10-01T07:13:14.932Z,96.76
2022-10-01T07:15:41.596Z,96.48
2022-10-01T07:18:11.924Z,95.69
2022-10-01T07:20:40.622Z,95.05
2022-10-01T07:23:11.322Z,94.74
2022-10-01T07:25:39.158Z,94.59
2022-10-01T07:28:07.541Z,94.73
2022-10-01T07:30:34.412Z,94.43
2022-10-01T07:33:00.908Z,94.64
2022-10-01T07:35:28.429Z,95.13
2022-10-01T07:37:55.359Z,94.92
2022-10-01T07:40:21.948Z,95.60
2022-10-01T07:42:55.962Z,94.98
2022-10-01T07:45:23.650Z,94.81
2022-10-01T07:47:55.159Z,94.36
2022-10-01T07:50:21.901Z,94.89
2022-10-01T07:52:56.192Z,94.45
2022-10-01T07:55:26.355Z,93.36
2022-10-01T07:57:57.470Z,93.34
2022-10-01T08:00:26.414Z,93.71
2022-10-01T08:02:55.955Z,93.04
2022-10-01T08:05:24.922Z,92.01
2022-10-01T08:07:51.519Z,92.40
2022-10-01T08:10:20.693Z,92.43
2022-10-01T08:12:47.113Z,92.89
2022-10-01T08:15:15.648Z,93.03
2022-10-01T08:17:43.144Z,92.91
2022-10-01T08:20:12.555Z,93.02
2022-10-01T08:22:42.037Z,93.43
2022-10-01T08:25:09.790Z,92.96
2022-10-01T08:27:36.754Z,92.28
2022-10-01T08:30:03.740Z,92.33
2022-10-01T08:32:31.852Z,92.96
2022-10-01T08:35:00.025Z,93.00
2022-10-01T08:37:27.960Z,93.10
2022-10-01T08:39:55.820Z,92.83
2022-10-01T08:42:37.550Z,92.45
2022-10-01T08:45:14.423Z,92.41
2022-10-01T08:47:49.432Z,91.80
2022-10-01T08:50:37.134Z,91.70
2022-10-01T08:53:10.882Z,90.48
2022-10-01T08:55:37.821Z,89.71
2022-10-01T08:58:07.109Z,89.46
2022-10-01T09:00:38.880Z,89.72
2022-10-01T09:03:08.534Z,89.84
2022-10-01T09:06:17.928Z,89.66
2022-10-01T09:09:16.333Z,89.94
2022-10-01T09:11:59.871Z,90.05
2022-10-01T09:14:48.445Z,89.95
2022-10-01T09:17:32.499Z,90.03
2022-10-01T09:20:23.267Z,91.49
2022-10-01T09:23:19.182Z,91.09
2022-10-01T09:25:52.858Z,91.96
2022-10-01T09:28:35.198Z,90.89
2022-10-01T09:31:30.300Z,90.11
2022-10-01T09:34:20.360Z,89.46
2022-10-01T09:36:46.768Z,86.50
2022-10-01T09:39:48.313Z,87.09
2022-10-01T09:42:14.820Z,85.64
2022-10-01T09:44:42.803Z,84.01
2022-10-01T09:47:21.140Z,83.52
2022-10-01T09:49:49.282Z,83.96
2022-10-01T09:52:31.478Z,82.62
2022-10-01T09:55:23.003Z,83.04
2022-10-01T09:58:16.441Z,82.73
2022-10-01T10:00:43.510Z,82.05
2022-10-01T10:03:10.134Z,81.36
2022-10-01T10:05:46.606Z,82.06
2022-10-01T10:08:29.871Z,82.15
2022-10-01T10:11:02.646Z,84.06
2022-10-01T10:13:43.322Z,83.29
2022-10-01T10:16:16.660Z,83.38
2022-10-01T10:18:49.122Z,82.93
2022-10-01T10:21:19.421Z,82.16
2022-10-01T10:23:51.958Z,82.98
2022-10-01T10:26:38.294Z,82.32
2022-10-01T10:29:07.505Z,82.13
2022-10-01T10:31:54.007Z,81.48
2022-10-01T10:34:40.621Z,82.46
2022-10-01T10:37:16.716Z,81.89
2022-10-01T10:39:47.794Z,81.09
2022-10-01T10:42:15.768Z,79.64
2022-10-01T10:44:45.304Z,79.10
2022-10-01T10:47:14.978Z,77.71
2022-10-01T10:49:53.946Z,78.29
2022-10-01T10:52:44.964Z,76.90
2022-10-01T10:55:31.022Z,74.99
2022-10-01T10:58:19.122Z,76.82
2022-10-01T11:00:50.097Z,76.25
2022-10-01T11:03:20.983Z,75.42
2022-10-01T11:05:51.626Z,74.99
2022-10-01T11:08:28.917Z,75.27
2022-10-01T11:11:02.208Z,73.99
2022-10-01T11:13:39.174Z,75.08
2022-10-01T11:16:27.870Z,73.78
2022-10-01T11:19:13.538Z,74.39
2022-10-01T11:21:48.930Z,72.08
2022-10-01T11:24:25.273Z,71.78
2022-10-01T11:26:55.364Z,71.59
2022-10-01T11:29:30.634Z,74.05
2022-10-01T11:32:11.127Z,74.87
2022-10-01T11:35:02.279Z,76.24
2022-10-01T11:37:43.954Z,76.38
2022-10-01T11:40:24.801Z,75.90
2022-10-01T11:42:55.464Z,76.30
2022-10-01T11:45:27.178Z,73.95
2022-10-01T11:48:02.298Z,74.61
2022-10-01T11:50:38.524Z,74.43
2022-10-01T11:53:17.892Z,71.10
2022-10-01T11:56:10.586Z,73.71
2022-10-01T11:58:54.657Z,71.41
2022-10-01T12:01:24.354Z,71.08
2022-10-01T12:03:53.671Z,69.70
2022-10-01T12:06:34.306Z,70.03
2022-10-01T12:09:06.378Z,70.54
2022-10-01T12:11:39.680Z,69.27
2022-10-01T12:14:16.863Z,70.76
2022-10-01T12:16:54.858Z,70.75
2022-10-01T12:19:26.609Z,70.06
2022-10-01T12:21:59.643Z,71.42
2022-10-01T12:24:35.623Z,71.43
2022-10-01T12:27:39.954Z,71.21
2022-10-01T12:30:20.267Z,70.19
2022-10-01T12:33:21.802Z,69.82
2022-10-01T12:36:00.437Z,69.43
2022-10-01T12:38:59.226Z,69.36
2022-10-01T12:41:50.975Z,67.71
2022-10-01T12:44:33.663Z,66.08
2022-10-01T12:47:18.949Z,65.21
2022-10-01T12:49:57.384Z,66.40
2022-10-01T12:52:33.862Z,65.74
2022-10-01T12:55:17.516Z,67.55
2022-10-01T12:58:20.850Z,69.19
2022-10-01T13:01:04.615Z,69.55
2022-10-01T13:03:49.779Z,69.25
2022-10-01T13:06:24.866Z,68.17
2022-10-01T13:09:31.202Z,67.27
2022-10-01T13:12:24.255Z,67.11
2022-10-01T13:14:53.366Z,66.56
2022-10-01T13:17:41.858Z,63.98
2022-10-01T13:20:43.648Z,64.85
2022-10-01T13:23:21.091Z,64.26
2022-10-01T13:25:59.688Z,64.83
2022-10-01T13:28:44.077Z,65.22
2022-10-01T13:31:35.377Z,64.86
2022-10-01T13:34:06.845Z,64.98
2022-10-01T13:36:51.191Z,63.16
2022-10-01T13:39:30.043Z,62.46
2022-10-01T13:42:19.769Z,63.15
2022-10-01T13:45:11.830Z,63.54
2022-10-01T13:48:06.888Z,65.68
2022-10-01T13:50:40.826Z,65.14
2022-10-01T13:53:34.254Z,66.90
2022-10-01T13:56:17.204Z,65.76
2022-10-01T14:01:47.586Z,64.00
2022-10-01T14:05:04.448Z,63.78
2022-10-01T14:07:45.100Z,64.71
2022-10-01T14:10:18.196Z,64.70
2022-10-01T14:13:21.459Z,64.77
2022-10-01T14:16:05.589Z,65.40
2022-10-01T14:18:49.954Z,63.61
2022-10-01T14:24:52.370Z,63.29
2022-10-01T14:27:34.198Z,65.30
2022-10-01T14:30:25.955Z,63.71
2022-10-01T14:33:23.982Z,64.62
2022-10-01T14:36:38.976Z,65.11
2022-10-01T14:39:31.051Z,63.89
2022-10-01T14:42:16.951Z,66.43
2022-10-01T14:44:48.550Z,66.10
2022-10-01T14:47:42.119Z,66.20
2022-10-01T14:50:19.786Z,67.05
2022-10-01T14:53:01.988Z,67.68
2022-10-01T14:55:34.443Z,70.19
2022-10-01T14:58:05.884Z,69.10
2022-10-01T15:00:35.782Z,67.83
2022-10-01T15:03:28.753Z,67.58
2022-10-01T15:06:04.915Z,67.36
2022-10-01T15:08:53.962Z,66.87
2022-10-01T15:21:47.070Z,70.29
2022-10-01T15:24:28.890Z,70.54
2022-10-01T15:26:57.532Z,71.79
2022-10-01T15:29:24.573Z,71.38
2022-10-01T15:31:56.233Z,71.20
2022-10-01T15:37:51.537Z,70.90
2022-10-01T15:40:26.277Z,72.43
2022-10-01T15:43:15.568Z,71.60
2022-10-01T15:45:42.467Z,70.15
2022-10-01T15:48:28.348Z,71.62
2022-10-01T15:51:00.500Z,71.60
2022-10-01T15:53:31.332Z,71.23
2022-10-01T15:55:59.941Z,71.38
2022-10-01T15:58:31.848Z,70.08
2022-10-01T16:01:18.894Z,71.16
2022-10-01T16:03:53.630Z,70.15
2022-10-01T16:06:36.862Z,71.34
2022-10-01T16:09:06.241Z,70.60
2022-10-01T16:15:29.513Z,71.76
2022-10-01T16:18:54.007Z,72.68
2022-10-01T16:21:21.701Z,72.72
2022-10-01T16:23:54.029Z,72.80
2022-10-01T16:26:32.313Z,72.90
2022-10-01T16:29:03.295Z,73.10
2022-10-01T16:31:30.948Z,73.04
2022-10-01T16:33:57.781Z,71.70
2022-10-01T16:36:26.215Z,72.99
2022-10-01T16:38:53.395Z,73.33
2022-10-01T16:41:26.918Z,73.10
2022-10-01T16:43:57.087Z,73.47
2022-10-01T16:46:25.818Z,73.59
2022-10-01T16:48:54.556Z,74.21
2022-10-01T16:51:32.269Z,73.96
2022-10-01T16:54:01.852Z,73.67
2022-10-01T16:56:30.687Z,74.22
2022-10-01T16:58:59.783Z,74.36
2022-10-01T17:01:31.455Z,74.11
2022-10-01T17:03:57.980Z,74.30
2022-10-01T17:06:24.604Z,74.10
2022-10-01T17:08:54.193Z,74.94
2022-10-01T17:11:30.836Z,75.47
2022-10-01T17:14:07.221Z,75.83
2022-10-01T17:16:34.731Z,75.16
2022-10-01T17:19:02.262Z,74.77
2022-10-01T17:21:29.570Z,75.30
2022-10-01T17:24:03.393Z,75.43
2022-10-01T17:26:29.930Z,76.00
2022-10-01T17:29:03.449Z,76.46
2022-10-01T17:31:34.918Z,76.90
2022-10-01T17:34:04.046Z,77.28
2022-10-01T17:36:45.777Z,77.87
2022-10-01T17:39:26.477Z,78.25
2022-10-01T17:41:56.053Z,79.09
2022-10-01T17:44:24.786Z,79.42
2022-10-01T17:46:53.699Z,80.47
2022-10-01T17:49:20.246Z,80.51
2022-10-01T17:51:52.574Z,80.89
2022-10-01T17:54:21.110Z,81.37
2022-10-01T17:56:50.437Z,82.20
2022-10-01T17:59:46.519Z,82.15
2022-10-01T18:02:39.954Z,83.17
2022-10-01T18:05:16.925Z,83.06
2022-10-01T18:07:43.546Z,83.71
2022-10-01T18:10:12.328Z,84.28
2022-10-01T18:12:39.207Z,84.53
2022-10-01T18:15:09.330Z,84.62
2022-10-01T18:17:43.480Z,85.11
2022-10-01T18:20:16.878Z,85.21
2022-10-01T18:22:48.263Z,85.35
2022-10-01T18:25:24.937Z,85.72
2022-10-01T18:27:54.266Z,85.85
2022-10-01T18:30:21.001Z,86.61
2022-10-01T18:32:51.917Z,86.57
2022-10-01T18:35:31.215Z,86.64
2022-10-01T18:38:02.836Z,86.96
2022-10-01T18:40:34.556Z,87.14
2022-10-01T18:43:14.399Z,87.50
2022-10-01T18:46:02.776Z,87.24
2022-10-01T18:48:52.597Z,87.55
2022-10-01T18:51:25.396Z,88.00
2022-10-01T18:54:12.989Z,88.25
2022-10-01T18:57:11.765Z,88.42
2022-10-01T19:00:17.355Z,88.24
2022-10-01T19:03:20.060Z,88.56
2022-10-01T19:06:14.583Z,88.58
2022-10-01T19:08:54.480Z,88.76
2022-10-01T19:11:42.567Z,88.78
2022-10-01T19:14:39.584Z,88.71
2022-10-01T19:17:15.075Z,88.82
2022-10-01T19:19:44.486Z,89.24
2022-10-01T19:22:20.354Z,89.28
2022-10-01T19:24:59.032Z,89.41
2022-10-01T19:27:52.515Z,89.78
2022-10-01T19:30:22.269Z,89.74
2022-10-01T19:33:08.213Z,89.77
2022-10-01T19:35:40.579Z,89.68
2022-10-01T19:38:15.940Z,89.78
2022-10-01T19:40:52.125Z,89.50
2022-10-01T19:43:30.697Z,89.50
2022-10-01T19:46:22.839Z,89.12
2022-10-01T19:49:13.436Z,89.31
2022-10-01T19:51:46.115Z,89.49
2022-10-01T19:54:18.645Z,89.39
2022-10-01T19:56:48.774Z,89.40
2022-10-01T19:59:19.862Z,89.34
2022-10-01T20:02:35.353Z,89.32
2022-10-01T20:05:06.857Z,89.56
2022-10-01T20:07:58.055Z,89.62
2022-10-01T20:10:39.209Z,89.78
2022-10-01T20:13:44.203Z,89.79
2022-10-01T20:16:40.871Z,90.04
2022-10-01T20:19:23.769Z,90.15
2022-10-01T20:21:57.906Z,90.35
2022-10-01T20:24:47.232Z,90.01
2022-10-01T20:27:34.210Z,90.12
2022-10-01T20:30:08.850Z,90.01
2022-10-01T20:33:07.518Z,90.15
2022-10-01T20:35:43.123Z,90.29
2022-10-01T20:38:21.285Z,90.47
2022-10-01T20:40:55.421Z,90.54
2022-10-01T20:43:38.556Z,90.51
2022-10-01T20:46:33.943Z,90.66
2022-10-01T20:49:55.016Z,91.01
2022-10-01T20:52:37.855Z,91.17
2022-10-01T20:55:26.742Z,90.98
2022-10-01T20:57:58.519Z,91.82
2022-10-01T21:00:27.385Z,91.81
2022-10-01T21:03:08.767Z,91.95
2022-10-01T21:05:50.791Z,91.93
2022-10-01T21:08:38.610Z,92.04
2022-10-01T21:11:12.860Z,92.49
2022-10-01T21:13:49.749Z,92.46
2022-10-01T21:16:41.982Z,92.78
2022-10-01T21:19:40.042Z,92.82
2022-10-01T21:22:26.923Z,92.98
2022-10-01T21:25:17.947Z,92.91
2022-10-01T21:28:04.082Z,92.89
2022-10-01T21:34:33.681Z,93.11
2022-10-01T21:37:41.403Z,93.06
2022-10-01T21:40:11.343Z,93.58
2022-10-01T21:43:12.021Z,93.56
2022-10-01T21:46:27.316Z,93.92
2022-10-01T21:49:22.155Z,94.20
2022-10-01T21:52:25.509Z,94.73
2022-10-01T21:55:23.059Z,94.91
2022-10-01T21:58:17.075Z,95.13
2022-10-01T22:01:00.287Z,95.48
2022-10-01T22:03:38.614Z,95.30
2022-10-01T22:06:26.539Z,95.38
2022-10-01T22:08:52.877Z,95.84
2022-10-01T22:11:27.661Z,95.81
2022-10-01T22:14:00.053Z,95.80
2022-10-01T22:16:31.496Z,96.50
2022-10-01T22:19:05.295Z,96.23
2022-10-01T22:21:44.632Z,96.59
2022-10-01T22:24:16.166Z,96.73
2022-10-01T22:26:49.306Z,97.17
2022-10-01T22:29:20.378Z,97.03
2022-10-01T22:31:48.982Z,97.34
2022-10-01T22:38:05.160Z,98.12
2022-10-01T22:40:38.967Z,97.98
2022-10-01T22:43:11.051Z,98.57
2022-10-01T22:46:15.369Z,98.38
2022-10-01T22:49:14.979Z,98.64
2022-10-01T22:52:19.023Z,98.24
2022-10-01T22:54:54.574Z,97.55
2022-10-01T22:57:43.598Z,96.68
2022-10-01T23:00:13.779Z,96.89
2022-10-01T23:02:45.950Z,96.44
2022-10-01T23:05:40.419Z,96.74
2022-10-01T23:08:25.678Z,96.63
2022-10-01T23:11:01.408Z,96.95
2022-10-01T23:13:38.255Z,97.15
2022-10-01T23:16:19.254Z,97.49
2022-10-01T23:19:11.363Z,97.75
2022-10-01T23:21:51.290Z,97.98
2022-10-01T23:25:04.575Z,97.89
2022-10-01T23:27:47.152Z,98.06
2022-10-01T23:30:17.501Z,98.13
2022-10-01T23:33:05.603Z,97.92
2022-10-01T23:35:33.126Z,98.09
2022-10-01T23:38:18.213Z,98.00
2022-10-01T23:40:48.221Z,97.96
2022-10-01T23:43:26.016Z,97.93
2022-10-01T23:46:01.943Z,97.77
2022-10-01T23:48:46.106Z,97.48
2022-10-01T23:51:21.408Z,97.79
2022-10-01T23:53:59.077Z,97.71
2022-10-01T23:56:48.732Z,97.64
2022-10-01T23:59:28.873Z,97.46
